Time;durP1;ratioP1;P1;durP2;ratioP2;P2;SDS_P1;SDS_P2;PMS_P1;PMS_P2;Temp;Humidity;BMP_temperature;BMP_pressure;BME280_temperature;BME280_humidity;BME280_pressure;Samples;Min_cycle;Max_cycle;Signal;HPM_P1;HPM_P2
2022/11/08 00:02:38;;;;;;;0.20;0.10;;;;;;;;;;5056947;28;20172;-83
2022/11/08 00:16:04;;;;;;;0.20;0.05;;;;;;;;;;5068503;28;20175;-86
2022/11/08 00:18:30;;;;;;;0.20;0.10;;;;;;;;;;5044551;28;20043;-85
2022/11/08 00:21:00;;;;;;;0.20;0.10;;;;;;;;;;5044133;28;20037;-83
2022/11/08 00:23:28;;;;;;;0.20;0.10;;;;;;;;;;5056871;28;20078;-86
2022/11/08 00:25:54;;;;;;;0.20;0.10;;;;;;;;;;5062066;28;20479;-84
2022/11/08 00:28:20;;;;;;;0.20;0.10;;;;;;;;;;5061549;28;20043;-85
2022/11/08 00:30:46;;;;;;;0.20;0.10;;;;;;;;;;5064273;28;20048;-88
2022/11/08 00:33:12;;;;;;;0.20;0.10;;;;;;;;;;5053537;28;20142;-85
2022/11/08 00:35:38;;;;;;;0.30;0.20;;;;;;;;;;5041313;28;20036;-85
2022/11/08 00:38:04;;;;;;;0.20;0.10;;;;;;;;;;5056141;28;20127;-84
2022/11/08 00:40:30;;;;;;;0.20;0.10;;;;;;;;;;5046978;28;20170;-84
2022/11/08 00:42:56;;;;;;;0.20;0.10;;;;;;;;;;5041660;28;20109;-84
2022/11/08 00:45:23;;;;;;;0.20;0.10;;;;;;;;;;5058518;28;20509;-88
2022/11/08 00:47:49;;;;;;;0.30;0.30;;;;;;;;;;5041353;28;20040;-83
2022/11/08 00:50:15;;;;;;;0.20;0.10;;;;;;;;;;5055921;28;20069;-85
2022/11/08 00:52:41;;;;;;;0.20;0.10;;;;;;;;;;5059405;28;20044;-82
2022/11/08 00:55:07;;;;;;;0.20;0.10;;;;;;;;;;5060726;28;20039;-84
2022/11/08 00:57:33;;;;;;;0.20;0.10;;;;;;;;;;5045131;28;20170;-85
2022/11/08 00:59:59;;;;;;;0.20;0.10;;;;;;;;;;5045339;28;20075;-85
2022/11/08 01:02:25;;;;;;;0.20;0.10;;;;;;;;;;5043624;28;20040;-85
2022/11/08 01:04:51;;;;;;;0.20;0.10;;;;;;;;;;5044691;28;20661;-84
2022/11/08 01:07:17;;;;;;;0.20;0.10;;;;;;;;;;5045098;28;20043;-86
2022/11/08 01:09:46;;;;;;;0.20;0.00;;;;;;;;;;5045958;28;20130;-86
2022/11/08 01:12:15;;;;;;;0.38;0.20;;;;;;;;;;5039124;28;20048;-84
2022/11/08 01:14:41;;;;;;;0.20;0.20;;;;;;;;;;5038535;28;20040;-87
2022/11/08 01:17:07;;;;;;;0.20;0.10;;;;;;;;;;5039479;28;20040;-83
2022/11/08 01:19:33;;;;;;;0.20;0.10;;;;;;;;;;5041899;28;20045;-83
2022/11/08 01:21:59;;;;;;;1.92;0.30;;;;;;;;;;5043759;28;20067;-85
2022/11/08 01:24:25;;;;;;;0.20;0.10;;;;;;;;;;5058218;28;20075;-86
2022/11/08 01:26:51;;;;;;;0.20;0.10;;;;;;;;;;5041433;28;20036;-85
2022/11/08 01:29:17;;;;;;;0.20;0.10;;;;;;;;;;5070669;28;20499;-83
2022/11/08 01:31:43;;;;;;;0.20;0.17;;;;;;;;;;5057445;28;20033;-86
2022/11/08 01:34:09;;;;;;;0.20;0.10;;;;;;;;;;5053521;28;20043;-85
2022/11/08 01:36:36;;;;;;;0.20;0.10;;;;;;;;;;5055862;28;20036;-83
2022/11/08 01:39:02;;;;;;;0.20;0.10;;;;;;;;;;5042719;28;20044;-82
2022/11/08 01:41:28;;;;;;;0.20;0.10;;;;;;;;;;5056167;28;20119;-84
2022/11/08 01:43:55;;;;;;;0.25;0.20;;;;;;;;;;5038686;28;20094;-85
2022/11/08 01:46:24;;;;;;;0.20;0.08;;;;;;;;;;5058684;28;20039;-84
2022/11/08 01:48:50;;;;;;;0.20;0.10;;;;;;;;;;5057885;28;20091;-85
2022/11/08 01:51:18;;;;;;;0.20;0.10;;;;;;;;;;5054823;28;20083;-84
2022/11/08 01:53:44;;;;;;;0.20;0.10;;;;;;;;;;5057315;28;20046;-85
2022/11/08 01:56:11;;;;;;;0.20;0.10;;;;;;;;;;5046859;28;20040;-87
2022/11/08 01:58:39;;;;;;;0.20;0.10;;;;;;;;;;5059744;28;20044;-88
2022/11/08 02:01:05;;;;;;;0.20;0.10;;;;;;;;;;5062655;28;20134;-86
2022/11/08 02:03:33;;;;;;;0.20;0.10;;;;;;;;;;5046324;28;20086;-83
2022/11/08 02:06:00;;;;;;;0.20;0.10;;;;;;;;;;5057533;28;20041;-84
2022/11/08 02:08:33;;;;;;;0.20;0.10;;;;;;;;;;5070004;28;20086;-82
2022/11/08 02:11:00;;;;;;;0.20;0.10;;;;;;;;;;5065777;28;20107;-86
2022/11/08 02:13:27;;;;;;;0.20;0.10;;;;;;;;;;5041977;28;20155;-86
2022/11/08 02:15:54;;;;;;;0.20;0.10;;;;;;;;;;5053884;28;20601;-83
2022/11/08 02:18:21;;;;;;;0.20;0.10;;;;;;;;;;5057872;28;20043;-84
2022/11/08 02:21:03;;;;;;;0.20;0.10;;;;;;;;;;5073384;28;20040;-87
2022/11/08 02:23:31;;;;;;;0.20;0.10;;;;;;;;;;5071961;28;20122;-85
2022/11/08 02:25:58;;;;;;;0.20;0.10;;;;;;;;;;5058105;28;20817;-86
2022/11/08 02:28:24;;;;;;;0.20;0.10;;;;;;;;;;5054345;28;20296;-84
2022/11/08 02:30:50;;;;;;;0.20;0.10;;;;;;;;;;5036429;28;20334;-85
2022/11/08 02:33:17;;;;;;;0.20;0.10;;;;;;;;;;5055901;28;20063;-86
2022/11/08 02:35:51;;;;;;;0.20;0.10;;;;;;;;;;5056641;28;21009;-87
2022/11/08 02:38:17;;;;;;;0.20;0.10;;;;;;;;;;5055983;28;20180;-87
2022/11/08 02:40:44;;;;;;;0.20;0.10;;;;;;;;;;5042153;28;20047;-85
2022/11/08 02:43:10;;;;;;;0.20;0.10;;;;;;;;;;5053170;28;20425;-85
2022/11/08 02:45:36;;;;;;;0.20;0.10;;;;;;;;;;5061770;28;20032;-84
2022/11/08 02:48:03;;;;;;;0.20;0.10;;;;;;;;;;5059530;28;20085;-88
2022/11/08 02:50:29;;;;;;;0.20;0.10;;;;;;;;;;5057425;28;20135;-83
2022/11/08 02:52:55;;;;;;;0.20;0.10;;;;;;;;;;5056307;28;20053;-83
2022/11/08 02:55:21;;;;;;;0.20;0.10;;;;;;;;;;5059734;28;20039;-83
2022/11/08 02:57:47;;;;;;;0.20;0.00;;;;;;;;;;5041054;28;20036;-81
2022/11/08 03:00:15;;;;;;;0.20;0.00;;;;;;;;;;5058446;28;20032;-85
2022/11/08 03:02:41;;;;;;;0.20;0.10;;;;;;;;;;5056262;28;20063;-83
2022/11/08 03:05:07;;;;;;;0.20;0.10;;;;;;;;;;5043427;28;20039;-83
2022/11/08 03:07:33;;;;;;;0.20;0.10;;;;;;;;;;5041848;28;20036;-83
2022/11/08 03:09:59;;;;;;;0.20;0.10;;;;;;;;;;5056034;28;20623;-82
2022/11/08 03:12:25;;;;;;;0.20;0.10;;;;;;;;;;5072959;28;20518;-85
2022/11/08 03:14:52;;;;;;;0.20;0.10;;;;;;;;;;5071995;28;20494;-84
2022/11/08 03:17:18;;;;;;;0.20;0.10;;;;;;;;;;5072642;28;20040;-82
2022/11/08 03:19:44;;;;;;;0.20;0.10;;;;;;;;;;5054161;28;20068;-85
2022/11/08 03:22:10;;;;;;;0.20;0.10;;;;;;;;;;5039987;28;20124;-85
2022/11/08 03:24:36;;;;;;;0.20;0.10;;;;;;;;;;5042196;28;20037;-82
2022/11/08 03:27:02;;;;;;;0.20;0.10;;;;;;;;;;5043030;28;20092;-84
2022/11/08 03:29:28;;;;;;;0.20;0.00;;;;;;;;;;5042081;28;20032;-85
2022/11/08 03:31:54;;;;;;;0.20;0.08;;;;;;;;;;5055934;22;20650;-80
2022/11/08 03:34:20;;;;;;;0.20;0.05;;;;;;;;;;5053989;28;20675;-79
2022/11/08 03:36:46;;;;;;;0.20;0.10;;;;;;;;;;5070690;28;20577;-79
2022/11/08 03:39:13;;;;;;;0.20;0.10;;;;;;;;;;5074253;28;20041;-80
2022/11/08 03:41:39;;;;;;;0.20;0.10;;;;;;;;;;5060756;28;20097;-79
2022/11/08 03:44:05;;;;;;;0.20;0.10;;;;;;;;;;5077536;28;20032;-77
2022/11/08 03:46:31;;;;;;;0.20;0.10;;;;;;;;;;5080134;28;20044;-79
2022/11/08 03:48:57;;;;;;;0.20;0.10;;;;;;;;;;5078265;28;20052;-79
2022/11/08 03:51:23;;;;;;;0.20;0.10;;;;;;;;;;5061794;28;20108;-81
2022/11/08 03:53:49;;;;;;;0.20;0.10;;;;;;;;;;5065632;28;20040;-80
2022/11/08 03:56:15;;;;;;;0.20;0.10;;;;;;;;;;5068286;28;20044;-80
2022/11/08 03:58:41;;;;;;;0.20;0.10;;;;;;;;;;5065178;28;20072;-77
2022/11/08 04:01:08;;;;;;;0.20;0.10;;;;;;;;;;5063350;28;20047;-82
2022/11/08 04:03:34;;;;;;;0.20;0.10;;;;;;;;;;5077427;28;20051;-81
2022/11/08 04:06:00;;;;;;;0.20;0.00;;;;;;;;;;5062835;28;20055;-80
2022/11/08 04:08:27;;;;;;;0.40;0.30;;;;;;;;;;5061789;28;20498;-79
2022/11/08 04:10:54;;;;;;;0.20;0.10;;;;;;;;;;5077188;28;20157;-78
2022/11/08 04:16:06;;;;;;;0.20;0.10;;;;;;;;;;5075964;28;20616;-81
2022/11/08 04:21:18;;;;;;;0.20;0.10;;;;;;;;;;5081763;28;20044;-79
2022/11/08 04:23:45;;;;;;;0.20;0.10;;;;;;;;;;5077797;28;20567;-80
2022/11/08 04:26:11;;;;;;;0.20;0.10;;;;;;;;;;5041786;28;20032;-80
2022/11/08 04:28:37;;;;;;;0.20;0.00;;;;;;;;;;5060022;28;20100;-80
2022/11/08 04:31:05;;;;;;;0.20;0.00;;;;;;;;;;5062694;28;20490;-80
2022/11/08 04:33:31;;;;;;;0.20;0.10;;;;;;;;;;5077606;28;20036;-80
2022/11/08 04:36:01;;;;;;;0.20;0.10;;;;;;;;;;5077553;28;20126;-79
2022/11/08 04:38:27;;;;;;;3.35;1.75;;;;;;;;;;5062523;28;20036;-80
2022/11/08 04:40:57;;;;;;;0.20;0.10;;;;;;;;;;5079540;28;20036;-81
2022/11/08 04:43:23;;;;;;;0.20;0.10;;;;;;;;;;5077073;28;20517;-78
2022/11/08 04:45:49;;;;;;;0.20;0.10;;;;;;;;;;5059553;28;20040;-79
2022/11/08 04:48:15;;;;;;;0.20;0.10;;;;;;;;;;5074431;28;20098;-81
2022/11/08 04:50:42;;;;;;;0.20;0.10;;;;;;;;;;5060384;28;20032;-80
2022/11/08 04:53:08;;;;;;;0.20;0.10;;;;;;;;;;5079827;28;20700;-79
2022/11/08 04:55:35;;;;;;;0.20;0.10;;;;;;;;;;5063510;28;20055;-79
2022/11/08 04:58:02;;;;;;;0.20;0.10;;;;;;;;;;5076975;28;20430;-80
2022/11/08 05:00:28;;;;;;;0.20;0.10;;;;;;;;;;5045664;28;20095;-81
2022/11/08 05:02:54;;;;;;;0.20;0.10;;;;;;;;;;5047532;28;20047;-79
2022/11/08 05:05:20;;;;;;;0.20;0.10;;;;;;;;;;5074383;28;21816;-79
2022/11/08 05:07:46;;;;;;;0.20;0.10;;;;;;;;;;5074998;28;20036;-80
2022/11/08 05:10:12;;;;;;;0.20;0.10;;;;;;;;;;5094630;27;20073;-80
2022/11/08 05:12:38;;;;;;;0.20;0.10;;;;;;;;;;5063196;28;20082;-78
2022/11/08 05:15:04;;;;;;;0.20;0.10;;;;;;;;;;5061921;28;20040;-79
2022/11/08 05:17:31;;;;;;;0.20;0.10;;;;;;;;;;5078498;28;20596;-80
2022/11/08 05:25:26;;;;;;;0.20;0.10;;;;;;;;;;5059111;28;20094;-79
2022/11/08 05:27:52;;;;;;;0.20;0.10;;;;;;;;;;5060179;28;20039;-79
2022/11/08 05:30:18;;;;;;;0.20;0.10;;;;;;;;;;5092019;28;20044;-78
2022/11/08 05:32:44;;;;;;;0.20;0.10;;;;;;;;;;5061109;28;20792;-78
2022/11/08 05:35:10;;;;;;;0.20;0.10;;;;;;;;;;5078385;28;20146;-80
2022/11/08 05:37:36;;;;;;;0.20;0.10;;;;;;;;;;5058108;28;20058;-80
2022/11/08 05:40:02;;;;;;;0.20;0.10;;;;;;;;;;5077612;28;20126;-80
2022/11/08 05:42:28;;;;;;;0.20;0.10;;;;;;;;;;5083044;28;20398;-79
2022/11/08 05:44:54;;;;;;;0.20;0.10;;;;;;;;;;5059737;28;20366;-80
2022/11/08 05:47:20;;;;;;;0.20;0.00;;;;;;;;;;5061291;28;20668;-81
2022/11/08 05:49:46;;;;;;;0.20;0.10;;;;;;;;;;5061959;28;20071;-80
2022/11/08 05:52:12;;;;;;;0.20;0.10;;;;;;;;;;5066969;28;20472;-79
2022/11/08 05:54:38;;;;;;;0.20;0.10;;;;;;;;;;5042469;28;20043;-79
2022/11/08 05:57:04;;;;;;;0.20;0.10;;;;;;;;;;5077841;28;20046;-80
2022/11/08 05:59:30;;;;;;;0.20;0.10;;;;;;;;;;5061201;28;20071;-78
2022/11/08 06:01:56;;;;;;;0.20;0.10;;;;;;;;;;5063263;28;20044;-80
2022/11/08 06:04:22;;;;;;;0.20;0.10;;;;;;;;;;5065527;28;20040;-79
2022/11/08 06:06:49;;;;;;;0.20;0.10;;;;;;;;;;5060457;28;20038;-80
2022/11/08 06:09:15;;;;;;;0.20;0.10;;;;;;;;;;5075553;28;20405;-78
2022/11/08 06:11:41;;;;;;;0.20;0.10;;;;;;;;;;5058349;28;20066;-80
2022/11/08 06:14:07;;;;;;;0.20;0.05;;;;;;;;;;5078868;28;20044;-80
2022/11/08 06:16:33;;;;;;;0.20;0.10;;;;;;;;;;5059863;28;20075;-77
2022/11/08 06:18:59;;;;;;;0.20;0.10;;;;;;;;;;5076289;28;20047;-80
2022/11/08 06:21:26;;;;;;;0.20;0.10;;;;;;;;;;5061312;28;20032;-79
2022/11/08 06:23:53;;;;;;;0.20;0.00;;;;;;;;;;5097259;28;20040;-79
2022/11/08 06:26:19;;;;;;;0.40;0.10;;;;;;;;;;5074436;28;20150;-79
2022/11/08 06:28:45;;;;;;;0.20;0.10;;;;;;;;;;5059456;28;20063;-77
2022/11/08 06:31:11;;;;;;;0.20;0.20;;;;;;;;;;5055080;28;20835;-78
2022/11/08 06:33:37;;;;;;;0.20;0.00;;;;;;;;;;5040814;28;20036;-79
2022/11/08 06:36:04;;;;;;;0.20;0.10;;;;;;;;;;5088690;28;20938;-81
2022/11/08 06:38:30;;;;;;;0.20;0.00;;;;;;;;;;5060840;28;20779;-79
2022/11/08 06:40:59;;;;;;;0.20;0.10;;;;;;;;;;5071485;28;20040;-80
2022/11/08 06:43:26;;;;;;;0.20;0.10;;;;;;;;;;5054682;28;20127;-78
2022/11/08 06:45:52;;;;;;;0.20;0.10;;;;;;;;;;5089328;27;20467;-79
2022/11/08 06:48:18;;;;;;;0.20;0.10;;;;;;;;;;5069917;28;20035;-78
2022/11/08 06:50:44;;;;;;;0.20;0.10;;;;;;;;;;5078995;28;20567;-79
2022/11/08 06:53:12;;;;;;;0.20;0.10;;;;;;;;;;5074413;28;20032;-80
2022/11/08 06:55:38;;;;;;;0.20;0.10;;;;;;;;;;5061297;28;20764;-79
2022/11/08 06:58:04;;;;;;;0.20;0.10;;;;;;;;;;5071796;28;20051;-79
2022/11/08 07:00:31;;;;;;;0.20;0.10;;;;;;;;;;5040756;28;20490;-80
2022/11/08 07:03:01;;;;;;;0.20;0.10;;;;;;;;;;5070825;28;20063;-80
2022/11/08 07:05:27;;;;;;;0.20;0.10;;;;;;;;;;5056726;28;20123;-80
2022/11/08 07:07:54;;;;;;;0.52;0.52;;;;;;;;;;5056147;28;20470;-79
2022/11/08 07:10:20;;;;;;;0.20;0.10;;;;;;;;;;5061390;28;20039;-79
2022/11/08 07:12:47;;;;;;;0.20;0.10;;;;;;;;;;5082212;28;20040;-80
2022/11/08 07:15:13;;;;;;;0.20;0.10;;;;;;;;;;5062342;28;20047;-80
2022/11/08 07:17:39;;;;;;;0.20;0.10;;;;;;;;;;5044879;28;20678;-80
2022/11/08 07:20:07;;;;;;;0.20;0.10;;;;;;;;;;5059696;28;20052;-80
2022/11/08 07:22:33;;;;;;;0.20;0.10;;;;;;;;;;5077473;28;20036;-79
2022/11/08 07:24:59;;;;;;;0.20;0.10;;;;;;;;;;5075754;28;20433;-79
2022/11/08 07:27:25;;;;;;;0.20;0.10;;;;;;;;;;5074257;28;20055;-78
2022/11/08 07:29:51;;;;;;;0.20;0.10;;;;;;;;;;5060359;28;20546;-78
2022/11/08 07:32:17;;;;;;;0.20;0.00;;;;;;;;;;5063947;28;20141;-79
2022/11/08 07:34:43;;;;;;;0.20;0.10;;;;;;;;;;5059469;28;20047;-80
2022/11/08 07:37:09;;;;;;;0.20;0.10;;;;;;;;;;5081374;28;20066;-82
2022/11/08 07:39:35;;;;;;;0.20;0.10;;;;;;;;;;5070678;28;20051;-79
2022/11/08 07:42:01;;;;;;;0.20;0.10;;;;;;;;;;5070622;28;20563;-79
2022/11/08 07:44:27;;;;;;;0.20;0.10;;;;;;;;;;5084428;28;20221;-79
2022/11/08 07:46:54;;;;;;;0.20;0.10;;;;;;;;;;5047465;28;20577;-80
2022/11/08 07:49:20;;;;;;;0.20;0.10;;;;;;;;;;5084128;28;20562;-77
2022/11/08 07:51:46;;;;;;;0.20;0.10;;;;;;;;;;5080911;28;20100;-79
2022/11/08 07:54:12;;;;;;;0.20;0.10;;;;;;;;;;5084782;28;20040;-79
2022/11/08 07:56:39;;;;;;;0.20;0.13;;;;;;;;;;5084194;28;20043;-81
2022/11/08 07:59:05;;;;;;;0.20;0.10;;;;;;;;;;5048140;28;20448;-82
2022/11/08 08:01:31;;;;;;;0.35;0.35;;;;;;;;;;5064364;28;20044;-80
2022/11/08 08:03:57;;;;;;;0.20;0.10;;;;;;;;;;5080352;28;20045;-82
2022/11/08 08:06:23;;;;;;;0.20;0.10;;;;;;;;;;5059475;28;20044;-81
2022/11/08 08:08:49;;;;;;;0.20;0.10;;;;;;;;;;5053779;28;20707;-81
2022/11/08 08:11:15;;;;;;;0.20;0.10;;;;;;;;;;5041324;28;20040;-79
2022/11/08 08:13:41;;;;;;;0.20;0.10;;;;;;;;;;5075103;28;20032;-81
2022/11/08 08:16:08;;;;;;;0.20;0.10;;;;;;;;;;5080425;28;20459;-80
2022/11/08 08:18:34;;;;;;;0.20;0.10;;;;;;;;;;5078930;28;20032;-81
2022/11/08 08:21:01;;;;;;;0.20;0.10;;;;;;;;;;5077865;28;20040;-82
2022/11/08 08:23:27;;;;;;;0.20;0.10;;;;;;;;;;5082355;28;20052;-81
2022/11/08 08:25:53;;;;;;;0.20;0.10;;;;;;;;;;5082532;28;20706;-80
2022/11/08 08:28:19;;;;;;;0.20;0.10;;;;;;;;;;5082955;28;20040;-82
2022/11/08 08:30:45;;;;;;;0.20;0.10;;;;;;;;;;5066032;28;20101;-78
2022/11/08 08:33:12;;;;;;;0.20;0.10;;;;;;;;;;5068761;28;20067;-80
2022/11/08 08:35:39;;;;;;;0.20;0.10;;;;;;;;;;5080960;28;20394;-81
2022/11/08 08:38:06;;;;;;;0.20;0.10;;;;;;;;;;5068867;28;20067;-81
2022/11/08 08:40:32;;;;;;;0.20;0.10;;;;;;;;;;5088955;28;20032;-81
2022/11/08 08:42:59;;;;;;;0.20;0.10;;;;;;;;;;5081296;28;20040;-83
2022/11/08 08:45:26;;;;;;;0.20;0.10;;;;;;;;;;5096993;28;20112;-79
2022/11/08 08:47:53;;;;;;;0.20;0.10;;;;;;;;;;5081788;28;20043;-81
2022/11/08 08:50:20;;;;;;;0.20;0.10;;;;;;;;;;5088336;28;20039;-80
2022/11/08 08:52:46;;;;;;;0.20;0.10;;;;;;;;;;5069361;28;20495;-81
2022/11/08 08:55:12;;;;;;;0.20;0.10;;;;;;;;;;5083740;28;20048;-81
2022/11/08 08:57:38;;;;;;;0.20;0.10;;;;;;;;;;5049635;28;20047;-82
2022/11/08 09:00:04;;;;;;;0.20;0.00;;;;;;;;;;5070195;28;20065;-79
2022/11/08 09:02:30;;;;;;;0.20;0.10;;;;;;;;;;5090948;28;20032;-77
2022/11/08 09:04:57;;;;;;;0.20;0.10;;;;;;;;;;5063679;28;20448;-81
2022/11/08 09:07:24;;;;;;;0.20;0.10;;;;;;;;;;5070052;28;20082;-82
2022/11/08 09:09:50;;;;;;;0.20;0.08;;;;;;;;;;5053514;28;20585;-81
2022/11/08 09:12:16;;;;;;;0.20;0.10;;;;;;;;;;5082644;28;20048;-80
2022/11/08 09:14:42;;;;;;;0.20;0.10;;;;;;;;;;5066361;28;20127;-81
2022/11/08 09:17:08;;;;;;;0.20;0.10;;;;;;;;;;5069980;28;20036;-80
2022/11/08 09:19:34;;;;;;;0.20;0.00;;;;;;;;;;5085402;28;20040;-80
2022/11/08 09:22:00;;;;;;;0.20;0.10;;;;;;;;;;5087117;28;20063;-82
2022/11/08 09:24:26;;;;;;;0.20;0.10;;;;;;;;;;5089022;28;20043;-80
2022/11/08 09:26:52;;;;;;;0.20;0.10;;;;;;;;;;5086812;28;20036;-79
2022/11/08 09:29:18;;;;;;;0.20;0.10;;;;;;;;;;5067334;28;20060;-80
2022/11/08 09:31:44;;;;;;;0.20;0.10;;;;;;;;;;5067130;28;20089;-82
2022/11/08 09:34:10;;;;;;;0.20;0.10;;;;;;;;;;5110721;22;20186;-85
2022/11/08 09:36:39;;;;;;;0.20;0.10;;;;;;;;;;5060748;28;20036;-86
2022/11/08 09:39:05;;;;;;;0.20;0.10;;;;;;;;;;5061962;28;20048;-85
2022/11/08 09:41:40;;;;;;;0.20;0.10;;;;;;;;;;5061577;28;20532;-86
2022/11/08 09:44:12;;;;;;;0.20;0.10;;;;;;;;;;5074650;28;20052;-85
2022/11/08 09:46:48;;;;;;;0.32;0.32;;;;;;;;;;5068286;28;20044;-87
2022/11/08 09:49:43;;;;;;;0.20;0.10;;;;;;;;;;5063314;28;20078;-87
2022/11/08 09:52:15;;;;;;;0.20;0.17;;;;;;;;;;5070797;28;20046;-88
2022/11/08 09:54:46;;;;;;;0.20;0.10;;;;;;;;;;5057402;28;20040;-87
2022/11/08 09:57:28;;;;;;;0.20;0.10;;;;;;;;;;5052379;28;20076;-86
2022/11/08 09:59:59;;;;;;;0.20;0.10;;;;;;;;;;5076884;28;20036;-81
2022/11/08 10:02:26;;;;;;;0.20;0.10;;;;;;;;;;5053845;28;20492;-86
2022/11/08 10:05:28;;;;;;;0.20;0.10;;;;;;;;;;5060212;28;20028;-84
2022/11/08 10:08:17;;;;;;;0.20;0.10;;;;;;;;;;5024681;28;20032;-84
2022/11/08 10:11:05;;;;;;;0.20;0.05;;;;;;;;;;5053668;28;20139;-85
2022/11/08 10:13:43;;;;;;;0.20;0.10;;;;;;;;;;5054368;28;20066;-85
2022/11/08 10:16:31;;;;;;;0.20;0.10;;;;;;;;;;5071463;28;20044;-84
2022/11/08 10:19:06;;;;;;;0.20;0.10;;;;;;;;;;5081933;28;20591;-86
2022/11/08 10:21:38;;;;;;;0.20;0.10;;;;;;;;;;5056417;28;20273;-86
2022/11/08 10:24:23;;;;;;;0.20;0.10;;;;;;;;;;5061217;28;20031;-82
2022/11/08 10:26:57;;;;;;;0.20;0.10;;;;;;;;;;5084832;28;20040;-86
2022/11/08 10:29:43;;;;;;;0.20;0.10;;;;;;;;;;5084211;28;20092;-85
2022/11/08 10:32:14;;;;;;;0.20;0.10;;;;;;;;;;5059390;28;20058;-87
2022/11/08 10:34:47;;;;;;;0.20;0.10;;;;;;;;;;5060785;28;20047;-86
2022/11/08 10:37:15;;;;;;;0.20;0.10;;;;;;;;;;5061807;28;20048;-87
2022/11/08 10:39:43;;;;;;;0.20;0.10;;;;;;;;;;5063315;28;20065;-84
2022/11/08 10:42:14;;;;;;;0.73;0.30;;;;;;;;;;5056415;28;20032;-84
2022/11/08 10:44:40;;;;;;;0.20;0.00;;;;;;;;;;5059370;28;20040;-85
2022/11/08 10:47:27;;;;;;;0.20;0.10;;;;;;;;;;5059014;28;20127;-86
2022/11/08 10:49:53;;;;;;;0.20;0.10;;;;;;;;;;5080604;28;20051;-81
2022/11/08 10:52:24;;;;;;;0.20;0.10;;;;;;;;;;5065530;28;20466;-86
2022/11/08 10:54:57;;;;;;;0.20;0.05;;;;;;;;;;5063573;28;20130;-86
2022/11/08 10:57:23;;;;;;;0.20;0.10;;;;;;;;;;5049516;28;20048;-85
2022/11/08 10:59:53;;;;;;;0.38;0.38;;;;;;;;;;5065481;28;20313;-86
2022/11/08 11:02:33;;;;;;;0.20;0.10;;;;;;;;;;5057077;28;20604;-85
2022/11/08 11:05:22;;;;;;;0.20;0.10;;;;;;;;;;5080204;28;20115;-85
2022/11/08 11:08:01;;;;;;;0.20;0.10;;;;;;;;;;5069450;28;20410;-86
2022/11/08 11:10:43;;;;;;;0.20;0.10;;;;;;;;;;5081100;28;20058;-85
2022/11/08 11:13:20;;;;;;;0.20;0.00;;;;;;;;;;5078421;28;20048;-87
2022/11/08 11:15:56;;;;;;;0.20;0.10;;;;;;;;;;5067875;28;20746;-87
2022/11/08 11:18:36;;;;;;;0.20;0.10;;;;;;;;;;5072437;28;20044;-86
2022/11/08 11:21:10;;;;;;;0.20;0.10;;;;;;;;;;5060018;28;20418;-86
2022/11/08 11:23:43;;;;;;;0.98;0.77;;;;;;;;;;5079314;28;20150;-85
2022/11/08 11:26:17;;;;;;;0.20;0.10;;;;;;;;;;5055405;28;20082;-87
2022/11/08 11:28:58;;;;;;;0.20;0.20;;;;;;;;;;5077555;28;20051;-86
2022/11/08 11:31:24;;;;;;;0.20;0.10;;;;;;;;;;5061602;28;20122;-85
2022/11/08 11:33:51;;;;;;;0.20;0.10;;;;;;;;;;5059011;28;20036;-86
2022/11/08 11:36:19;;;;;;;0.20;0.10;;;;;;;;;;5063211;28;20922;-86
2022/11/08 11:38:48;;;;;;;0.20;0.10;;;;;;;;;;5055950;28;20044;-87
2022/11/08 11:41:22;;;;;;;0.20;0.00;;;;;;;;;;5063068;28;20060;-89
2022/11/08 11:43:57;;;;;;;0.20;0.10;;;;;;;;;;5062975;28;20032;-84
2022/11/08 11:46:25;;;;;;;0.20;0.10;;;;;;;;;;5062539;28;20150;-85
2022/11/08 11:48:55;;;;;;;0.20;0.10;;;;;;;;;;5061469;28;20059;-86
2022/11/08 11:51:23;;;;;;;0.20;0.10;;;;;;;;;;5062194;28;20591;-82
2022/11/08 11:53:52;;;;;;;0.20;0.10;;;;;;;;;;5071618;28;20043;-86
2022/11/08 11:56:21;;;;;;;0.20;0.10;;;;;;;;;;5045940;28;20036;-83
2022/11/08 11:58:57;;;;;;;0.20;0.10;;;;;;;;;;5076803;28;20044;-84
2022/11/08 12:01:42;;;;;;;0.20;0.05;;;;;;;;;;5069418;28;20037;-87
2022/11/08 12:04:40;;;;;;;0.20;0.10;;;;;;;;;;5073927;28;20510;-85
2022/11/08 12:07:10;;;;;;;0.20;0.10;;;;;;;;;;5029581;28;20072;-87
2022/11/08 12:09:39;;;;;;;0.20;0.10;;;;;;;;;;5065835;28;20051;-87
2022/11/08 12:12:21;;;;;;;0.20;0.10;;;;;;;;;;5068229;28;20062;-86
2022/11/08 12:14:47;;;;;;;0.20;0.10;;;;;;;;;;5063798;28;20048;-85
2022/11/08 12:17:27;;;;;;;0.20;0.10;;;;;;;;;;5064171;28;20119;-87
2022/11/08 12:19:56;;;;;;;0.20;0.10;;;;;;;;;;5066151;28;20036;-88
2022/11/08 12:22:39;;;;;;;0.20;0.10;;;;;;;;;;5082230;28;20058;-85
2022/11/08 12:25:15;;;;;;;0.25;0.10;;;;;;;;;;5082359;28;20036;-86
2022/11/08 12:27:50;;;;;;;0.20;0.10;;;;;;;;;;5066220;28;20035;-86
2022/11/08 12:30:35;;;;;;;0.20;0.10;;;;;;;;;;5065449;28;20043;-86
2022/11/08 12:33:20;;;;;;;0.20;0.10;;;;;;;;;;5075614;28;20166;-84
2022/11/08 12:36:21;;;;;;;0.20;0.10;;;;;;;;;;5085392;28;20085;-85
2022/11/08 12:38:50;;;;;;;0.20;0.10;;;;;;;;;;4985373;28;20084;-84
2022/11/08 12:41:27;;;;;;;0.20;0.10;;;;;;;;;;5059214;28;20052;-87
2022/11/08 12:44:13;;;;;;;0.20;0.10;;;;;;;;;;5080095;28;20048;-84
2022/11/08 12:46:53;;;;;;;0.20;0.10;;;;;;;;;;5067679;28;20032;-84
2022/11/08 12:49:36;;;;;;;0.20;0.10;;;;;;;;;;5087314;28;20039;-86
2022/11/08 12:52:22;;;;;;;0.20;0.17;;;;;;;;;;5065598;28;20036;-87
2022/11/08 12:55:00;;;;;;;0.20;0.00;;;;;;;;;;5082905;28;20032;-83
2022/11/08 12:57:30;;;;;;;0.20;0.10;;;;;;;;;;5069212;28;20040;-87
2022/11/08 13:00:27;;;;;;;0.20;0.10;;;;;;;;;;5083393;28;20067;-87
2022/11/08 13:03:05;;;;;;;0.20;0.10;;;;;;;;;;5084795;28;20516;-84
2022/11/08 13:05:32;;;;;;;0.20;0.10;;;;;;;;;;5067012;28;20060;-86
2022/11/08 13:08:17;;;;;;;0.20;0.10;;;;;;;;;;5057688;28;20040;-84
2022/11/08 13:11:08;;;;;;;0.20;0.10;;;;;;;;;;5068852;28;20040;-85
2022/11/08 13:13:49;;;;;;;0.20;0.10;;;;;;;;;;5069663;28;20379;-80
2022/11/08 13:16:29;;;;;;;0.20;0.10;;;;;;;;;;5087312;28;20041;-85
2022/11/08 13:18:57;;;;;;;0.20;0.10;;;;;;;;;;5069638;28;20646;-83
2022/11/08 13:21:29;;;;;;;0.20;0.10;;;;;;;;;;5071250;28;20047;-84
2022/11/08 13:24:01;;;;;;;0.20;0.10;;;;;;;;;;5069087;28;20031;-84
2022/11/08 13:26:31;;;;;;;0.20;0.08;;;;;;;;;;5061495;28;20044;-84
2022/11/08 13:29:23;;;;;;;0.20;0.10;;;;;;;;;;5069688;28;20123;-87
2022/11/08 13:32:02;;;;;;;0.20;0.10;;;;;;;;;;5068686;28;20720;-85
2022/11/08 13:34:40;;;;;;;0.20;0.10;;;;;;;;;;5078198;28;20316;-84
2022/11/08 13:37:06;;;;;;;0.20;0.10;;;;;;;;;;5069524;28;20047;-84
2022/11/08 13:39:51;;;;;;;0.20;0.10;;;;;;;;;;5068610;28;20473;-86
2022/11/08 13:42:17;;;;;;;0.20;0.10;;;;;;;;;;5060978;28;20037;-85
2022/11/08 13:44:57;;;;;;;0.20;0.00;;;;;;;;;;5083434;28;20620;-86
2022/11/08 13:47:32;;;;;;;0.50;0.20;;;;;;;;;;5085860;28;20089;-84
2022/11/08 13:50:20;;;;;;;0.20;0.10;;;;;;;;;;5069982;28;20127;-86
2022/11/08 13:53:21;;;;;;;0.20;0.10;;;;;;;;;;5071066;28;20106;-86
2022/11/08 13:55:55;;;;;;;0.20;0.03;;;;;;;;;;5023276;28;20079;-88
2022/11/08 13:58:43;;;;;;;0.20;0.10;;;;;;;;;;5067458;28;20051;-82
2022/11/08 14:01:32;;;;;;;0.20;0.08;;;;;;;;;;5069276;28;20032;-85
2022/11/08 14:03:59;;;;;;;0.20;0.10;;;;;;;;;;5070060;28;20514;-83
2022/11/08 14:06:35;;;;;;;0.20;0.10;;;;;;;;;;5068991;28;20047;-87
2022/11/08 14:09:01;;;;;;;0.20;0.10;;;;;;;;;;5068242;28;20119;-85
2022/11/08 14:11:43;;;;;;;0.20;0.10;;;;;;;;;;5073571;28;20047;-86
2022/11/08 14:14:32;;;;;;;0.20;0.10;;;;;;;;;;5069034;28;20047;-87
2022/11/08 14:16:58;;;;;;;0.20;0.10;;;;;;;;;;5087202;28;20089;-88
2022/11/08 14:19:29;;;;;;;0.20;0.10;;;;;;;;;;5065988;28;20078;-87
2022/11/08 14:22:00;;;;;;;0.20;0.00;;;;;;;;;;5084358;28;20040;-88
2022/11/08 14:24:35;;;;;;;0.20;0.10;;;;;;;;;;5068664;28;20044;-86
2022/11/08 14:27:05;;;;;;;0.20;0.00;;;;;;;;;;5075510;28;20486;-88
2022/11/08 14:29:31;;;;;;;0.20;0.10;;;;;;;;;;5077216;28;20047;-83
2022/11/08 14:32:01;;;;;;;0.20;0.10;;;;;;;;;;5090130;28;20036;-85
2022/11/08 14:34:31;;;;;;;0.20;0.00;;;;;;;;;;5068217;28;20039;-87
2022/11/08 14:37:00;;;;;;;0.20;0.10;;;;;;;;;;5057923;28;20056;-86
2022/11/08 14:39:37;;;;;;;0.20;0.10;;;;;;;;;;5067987;28;20635;-86
2022/11/08 14:42:17;;;;;;;0.20;0.03;;;;;;;;;;5070718;28;20062;-86
2022/11/08 14:44:44;;;;;;;0.20;0.10;;;;;;;;;;5062435;28;20048;-85
2022/11/08 14:47:31;;;;;;;0.20;0.10;;;;;;;;;;5085382;28;20114;-89
2022/11/08 14:50:00;;;;;;;0.20;0.10;;;;;;;;;;5069351;28;20051;-86
2022/11/08 14:52:30;;;;;;;0.20;0.00;;;;;;;;;;5087636;28;20043;-85
2022/11/08 14:55:03;;;;;;;0.20;0.10;;;;;;;;;;5067880;28;20039;-85
2022/11/08 14:57:32;;;;;;;0.20;0.10;;;;;;;;;;5058397;28;20040;-87
2022/11/08 14:59:58;;;;;;;0.20;0.10;;;;;;;;;;5080186;28;20032;-85
2022/11/08 15:02:25;;;;;;;0.20;0.10;;;;;;;;;;5068707;28;20127;-86
2022/11/08 15:04:51;;;;;;;0.20;0.10;;;;;;;;;;5085318;28;20470;-84
2022/11/08 15:07:19;;;;;;;0.20;0.00;;;;;;;;;;5052543;28;20028;-85
2022/11/08 15:09:45;;;;;;;0.30;0.20;;;;;;;;;;5068000;28;20421;-85
2022/11/08 15:12:16;;;;;;;0.20;0.10;;;;;;;;;;5067381;28;20043;-86
2022/11/08 15:14:51;;;;;;;0.20;0.10;;;;;;;;;;5058776;28;20127;-88
2022/11/08 15:17:37;;;;;;;0.20;0.10;;;;;;;;;;5068577;28;20044;-85
2022/11/08 15:20:04;;;;;;;0.20;0.10;;;;;;;;;;5081939;28;20043;-84
2022/11/08 15:22:32;;;;;;;0.20;0.10;;;;;;;;;;5069505;28;20040;-84